Time;durP1;ratioP1;P1;durP2;ratioP2;P2;SDS_P1;SDS_P2;PMS_P1;PMS_P2;Temp;Humidity;BMP_temperature;BMP_pressure;BME280_temperature;BME280_humidity;BME280_pressure;Samples;Min_cycle;Max_cycle;Signal;HPM_P1;HPM_P2
2022/05/30 00:01:42;;;;;;;;;;;11.40;72.70;;;;;;5006453;28;19914;-77
2022/05/30 00:04:07;;;;;;;;;;;11.40;72.20;;;;;;5009208;28;19918;-77
2022/05/30 00:06:33;;;;;;;;;;;11.40;72.20;;;;;;4994061;28;19910;-77
2022/05/30 00:08:58;;;;;;;;;;;11.30;72.20;;;;;;4992344;28;19929;-77
2022/05/30 00:11:26;;;;;;;;;;;11.30;73.30;;;;;;4999816;28;19924;-77
2022/05/30 00:13:52;;;;;;;;;;;11.30;72.40;;;;;;5016943;28;19984;-78
2022/05/30 00:16:19;;;;;;;;;;;11.40;72.40;;;;;;4994534;28;19917;-79
2022/05/30 00:18:45;;;;;;;;;;;11.40;72.60;;;;;;4994016;28;20005;-79
2022/05/30 00:21:11;;;;;;;;;;;11.40;72.50;;;;;;5004378;28;19940;-78
2022/05/30 00:23:36;;;;;;;;;;;11.30;72.20;;;;;;5005693;28;20386;-78
2022/05/30 00:26:06;;;;;;;;;;;11.20;72.90;;;;;;4993965;28;19997;-78
2022/05/30 00:28:31;;;;;;;;;;;11.20;73.30;;;;;;5009700;28;20001;-78
2022/05/30 00:30:57;;;;;;;;;;;11.30;73.30;;;;;;4992522;28;19949;-78
2022/05/30 00:33:22;;;;;;;;;;;11.30;73.10;;;;;;5028357;28;19952;-78
2022/05/30 00:35:48;;;;;;;;;;;11.40;71.90;;;;;;4992661;28;20349;-77
2022/05/30 00:38:13;;;;;;;;;;;11.20;73.40;;;;;;4993836;28;19925;-77
2022/05/30 00:40:39;;;;;;;;;;;11.00;73.60;;;;;;5004673;28;19979;-78
2022/05/30 00:43:20;;;;;;;;;;;11.00;73.80;;;;;;5017647;28;20264;-78
2022/05/30 00:45:46;;;;;;;;;;;11.00;73.90;;;;;;5024873;28;19928;-78
2022/05/30 00:48:11;;;;;;;;;;;11.10;73.20;;;;;;5006859;28;19913;-78
2022/05/30 00:50:37;;;;;;;;;;;11.10;73.60;;;;;;5002928;28;19917;-78
2022/05/30 00:53:03;;;;;;;;;;;11.10;74.10;;;;;;5007588;28;20290;-78
2022/05/30 00:55:29;;;;;;;;;;;11.10;73.80;;;;;;5008524;28;20009;-78
2022/05/30 00:57:55;;;;;;;;;;;11.20;73.60;;;;;;4992043;28;20008;-79
2022/05/30 01:00:22;;;;;;;;;;;11.10;73.40;;;;;;4992349;28;20008;-78
2022/05/30 01:08:18;;;;;;;;;;;11.40;71.80;;;;;;5002322;28;19921;-78
2022/05/30 01:10:43;;;;;;;;;;;11.20;73.00;;;;;;4995048;28;19914;-78
2022/05/30 01:13:15;;;;;;;;;;;11.00;74.90;;;;;;4991439;28;19914;-78
2022/05/30 01:15:41;;;;;;;;;;;11.00;75.70;;;;;;5004393;28;19921;-78
2022/05/30 01:18:25;;;;;;;;;;;11.10;74.40;;;;;;4996530;28;19914;-78
2022/05/30 01:20:57;;;;;;;;;;;11.00;74.30;;;;;;5005160;28;19925;-78
2022/05/30 01:23:31;;;;;;;;;;;11.10;75.40;;;;;;5010397;28;19989;-78
2022/05/30 01:26:09;;;;;;;;;;;11.00;74.70;;;;;;4991743;28;19914;-78
2022/05/30 01:28:55;;;;;;;;;;;11.10;74.90;;;;;;4994287;28;19922;-77
2022/05/30 01:31:21;;;;;;;;;;;11.10;74.60;;;;;;5023616;28;19989;-77
2022/05/30 01:33:46;;;;;;;;;;;11.20;74.00;;;;;;5024887;28;19914;-79
2022/05/30 01:36:12;;;;;;;;;;;11.30;73.60;;;;;;4999942;28;19914;-78
2022/05/30 01:38:37;;;;;;;;;;;11.10;73.40;;;;;;4994131;28;19985;-77
2022/05/30 01:41:03;;;;;;;;;;;11.10;73.60;;;;;;4997529;28;19921;-78
2022/05/30 01:43:29;;;;;;;;;;;11.00;75.30;;;;;;5007221;28;19961;-78
2022/05/30 01:45:54;;;;;;;;;;;10.70;76.30;;;;;;5012556;28;20681;-78
2022/05/30 01:48:20;;;;;;;;;;;10.80;76.70;;;;;;4987790;28;19929;-78
2022/05/30 01:50:45;;;;;;;;;;;10.60;77.10;;;;;;4996762;28;19918;-78
2022/05/30 01:53:11;;;;;;;;;;;10.70;77.30;;;;;;4992682;28;20306;-78
2022/05/30 01:55:37;;;;;;;;;;;10.70;77.60;;;;;;5010642;28;19961;-78
2022/05/30 01:58:02;;;;;;;;;;;10.80;77.00;;;;;;5009391;28;19914;-78
2022/05/30 02:00:28;;;;;;;;;;;10.90;76.60;;;;;;5011103;28;19924;-77
2022/05/30 02:02:53;;;;;;;;;;;11.10;75.50;;;;;;4995044;28;19949;-78
2022/05/30 02:05:19;;;;;;;;;;;11.10;75.30;;;;;;5027352;28;19917;-78
2022/05/30 02:07:44;;;;;;;;;;;11.00;75.00;;;;;;5016520;28;20381;-78
2022/05/30 02:10:10;;;;;;;;;;;11.10;74.50;;;;;;5005714;28;19975;-78
2022/05/30 02:12:35;;;;;;;;;;;11.10;74.70;;;;;;4994839;28;20052;-77
2022/05/30 02:15:01;;;;;;;;;;;11.10;75.80;;;;;;5027833;28;19914;-78
2022/05/30 02:17:26;;;;;;;;;;;11.00;75.80;;;;;;4999754;28;19921;-78
2022/05/30 02:19:52;;;;;;;;;;;11.00;76.40;;;;;;5018673;28;19999;-78
2022/05/30 02:22:19;;;;;;;;;;;11.00;75.60;;;;;;4992372;28;19920;-77
2022/05/30 02:24:44;;;;;;;;;;;11.00;75.70;;;;;;4987725;28;19922;-78
2022/05/30 02:27:14;;;;;;;;;;;11.10;74.60;;;;;;4989373;28;19928;-77
2022/05/30 02:29:40;;;;;;;;;;;11.10;74.20;;;;;;4988481;28;19921;-78
2022/05/30 02:32:05;;;;;;;;;;;11.00;74.70;;;;;;4999588;28;19914;-78
2022/05/30 02:37:16;;;;;;;;;;;11.00;74.80;;;;;;4992702;28;19924;-77
2022/05/30 02:39:41;;;;;;;;;;;11.10;74.80;;;;;;4991174;28;19925;-78
2022/05/30 02:42:07;;;;;;;;;;;11.10;74.70;;;;;;5005513;28;19914;-78
2022/05/30 02:44:33;;;;;;;;;;;11.10;73.60;;;;;;5001980;28;20355;-78
2022/05/30 02:46:59;;;;;;;;;;;11.00;73.90;;;;;;4994096;28;20367;-78
2022/05/30 02:49:25;;;;;;;;;;;11.00;74.60;;;;;;5020966;28;19917;-78
2022/05/30 02:51:50;;;;;;;;;;;10.80;74.40;;;;;;5003923;28;19928;-77
2022/05/30 02:54:16;;;;;;;;;;;10.80;74.50;;;;;;4992687;28;19994;-79
2022/05/30 02:56:46;;;;;;;;;;;10.80;73.50;;;;;;4992346;28;19918;-78
2022/05/30 02:59:12;;;;;;;;;;;11.00;73.10;;;;;;5004799;28;19914;-78
2022/05/30 03:01:37;;;;;;;;;;;10.90;73.70;;;;;;5006495;28;20021;-78
2022/05/30 03:04:04;;;;;;;;;;;10.90;73.60;;;;;;5006037;28;19913;-78
2022/05/30 03:06:30;;;;;;;;;;;10.90;72.90;;;;;;4994144;28;19914;-78
2022/05/30 03:08:58;;;;;;;;;;;10.80;73.90;;;;;;4991621;28;19924;-78
2022/05/30 03:11:24;;;;;;;;;;;10.80;74.50;;;;;;5008834;28;19913;-76
2022/05/30 03:13:49;;;;;;;;;;;11.00;73.40;;;;;;5017431;28;19925;-77
2022/05/30 03:16:15;;;;;;;;;;;10.90;73.20;;;;;;4984321;28;19918;-77
2022/05/30 03:18:41;;;;;;;;;;;10.90;73.80;;;;;;5000744;28;19917;-79
2022/05/30 03:21:06;;;;;;;;;;;10.80;73.40;;;;;;4992593;28;19922;-77
2022/05/30 03:23:32;;;;;;;;;;;10.90;73.40;;;;;;5005919;28;19914;-76
2022/05/30 03:25:58;;;;;;;;;;;10.60;75.00;;;;;;5001633;28;20026;-76
2022/05/30 03:28:23;;;;;;;;;;;10.70;75.70;;;;;;5003163;28;20318;-77
2022/05/30 03:30:49;;;;;;;;;;;10.70;75.20;;;;;;5001834;28;19914;-77
2022/05/30 03:33:14;;;;;;;;;;;10.70;74.90;;;;;;5006836;28;19917;-77
2022/05/30 03:35:40;;;;;;;;;;;10.70;75.60;;;;;;5005491;28;19918;-77
2022/05/30 03:38:06;;;;;;;;;;;10.70;76.00;;;;;;4993640;28;20346;-77
2022/05/30 03:40:32;;;;;;;;;;;10.80;74.70;;;;;;5002998;28;20021;-77
2022/05/30 03:42:58;;;;;;;;;;;10.70;75.40;;;;;;4986580;28;20159;-75
2022/05/30 03:45:24;;;;;;;;;;;10.70;76.10;;;;;;4986332;28;20020;-76
2022/05/30 03:47:49;;;;;;;;;;;10.60;75.30;;;;;;5001057;28;20643;-76
2022/05/30 03:50:17;;;;;;;;;;;10.60;75.60;;;;;;4989900;28;19920;-77
2022/05/30 03:52:42;;;;;;;;;;;10.50;76.30;;;;;;4994163;28;19914;-77
2022/05/30 03:55:11;;;;;;;;;;;10.40;76.90;;;;;;5015296;28;20424;-77
2022/05/30 03:57:38;;;;;;;;;;;10.60;76.30;;;;;;5007815;28;19913;-77
2022/05/30 04:00:04;;;;;;;;;;;10.80;75.10;;;;;;4988299;28;20169;-77
2022/05/30 04:02:29;;;;;;;;;;;10.60;76.00;;;;;;5001005;28;19914;-76
2022/05/30 04:04:55;;;;;;;;;;;10.50;76.60;;;;;;5004085;28;19922;-77
2022/05/30 04:07:21;;;;;;;;;;;10.60;76.90;;;;;;4988049;28;19960;-77
2022/05/30 04:09:46;;;;;;;;;;;10.40;77.00;;;;;;4989531;28;20556;-77
2022/05/30 04:12:12;;;;;;;;;;;10.50;78.10;;;;;;4985283;28;19985;-76
2022/05/30 04:14:37;;;;;;;;;;;10.60;77.60;;;;;;4990186;28;20017;-77
2022/05/30 04:17:03;;;;;;;;;;;10.70;77.20;;;;;;4995869;28;20003;-77
2022/05/30 04:19:29;;;;;;;;;;;10.80;76.90;;;;;;4989398;28;19914;-77
2022/05/30 04:21:54;;;;;;;;;;;10.70;76.60;;;;;;4990911;28;20279;-77
2022/05/30 04:24:20;;;;;;;;;;;10.60;76.10;;;;;;5002429;28;19918;-77
2022/05/30 04:26:46;;;;;;;;;;;10.50;76.90;;;;;;4989771;28;19929;-77
2022/05/30 04:29:11;;;;;;;;;;;10.70;76.50;;;;;;5003400;28;19994;-78
2022/05/30 04:31:37;;;;;;;;;;;10.70;76.90;;;;;;4988637;28;19971;-78
2022/05/30 04:34:02;;;;;;;;;;;10.70;76.40;;;;;;4990711;28;20507;-78
2022/05/30 04:36:28;;;;;;;;;;;10.60;75.90;;;;;;5007744;28;19965;-77
2022/05/30 04:38:53;;;;;;;;;;;10.80;75.00;;;;;;4992781;28;20056;-78
2022/05/30 04:41:19;;;;;;;;;;;10.70;75.40;;;;;;5012336;28;20302;-78
2022/05/30 04:43:44;;;;;;;;;;;10.60;76.00;;;;;;4994813;28;20053;-78
2022/05/30 04:46:12;;;;;;;;;;;10.60;75.70;;;;;;5007815;28;19950;-78
2022/05/30 04:48:38;;;;;;;;;;;10.80;76.10;;;;;;4994007;28;19929;-78
2022/05/30 04:51:03;;;;;;;;;;;10.80;76.00;;;;;;4996242;28;19998;-77
2022/05/30 04:53:29;;;;;;;;;;;11.00;75.40;;;;;;5032482;28;19925;-77
2022/05/30 04:55:55;;;;;;;;;;;11.00;75.10;;;;;;5003985;28;19933;-79
2022/05/30 04:58:20;;;;;;;;;;;11.10;75.00;;;;;;5001040;28;20008;-78
2022/05/30 05:00:46;;;;;;;;;;;10.80;75.30;;;;;;5021279;28;20374;-77
2022/05/30 05:03:11;;;;;;;;;;;10.80;75.50;;;;;;5009139;28;19922;-81
2022/05/30 05:05:37;;;;;;;;;;;10.90;75.50;;;;;;5005778;28;19921;-79
2022/05/30 05:08:14;;;;;;;;;;;10.80;74.30;;;;;;5008024;28;20005;-80
2022/05/30 05:10:44;;;;;;;;;;;10.90;75.00;;;;;;4999258;28;19976;-79
2022/05/30 05:13:09;;;;;;;;;;;10.90;75.30;;;;;;5000760;28;19921;-79
2022/05/30 05:15:34;;;;;;;;;;;11.10;74.70;;;;;;5001557;28;19977;-80
2022/05/30 05:18:00;;;;;;;;;;;11.20;74.10;;;;;;5008712;28;20382;-79
2022/05/30 05:20:25;;;;;;;;;;;11.00;74.00;;;;;;5009051;28;19925;-79
2022/05/30 05:22:51;;;;;;;;;;;11.00;74.40;;;;;;5024768;28;20039;-78
2022/05/30 05:25:17;;;;;;;;;;;11.10;75.00;;;;;;4993675;28;19921;-78
2022/05/30 05:27:43;;;;;;;;;;;11.10;75.20;;;;;;5024619;28;20516;-78
2022/05/30 05:30:10;;;;;;;;;;;11.10;74.80;;;;;;4990149;28;20362;-76
2022/05/30 05:32:36;;;;;;;;;;;11.20;75.30;;;;;;5007082;28;19914;-78
2022/05/30 05:35:01;;;;;;;;;;;11.20;74.20;;;;;;4990633;28;19936;-83
2022/05/30 05:37:27;;;;;;;;;;;11.30;73.80;;;;;;5004675;28;19914;-79
2022/05/30 05:39:52;;;;;;;;;;;11.30;72.90;;;;;;5013599;28;19917;-79
2022/05/30 05:42:18;;;;;;;;;;;11.30;72.80;;;;;;4997090;28;19924;-78
2022/05/30 05:44:43;;;;;;;;;;;11.30;72.20;;;;;;5022881;28;20266;-78
2022/05/30 05:47:10;;;;;;;;;;;11.50;72.10;;;;;;5028204;28;20722;-78
2022/05/30 05:49:36;;;;;;;;;;;11.50;71.90;;;;;;5022531;28;20134;-78
2022/05/30 05:52:01;;;;;;;;;;;11.50;71.30;;;;;;5010765;28;19922;-78
2022/05/30 05:54:28;;;;;;;;;;;11.40;72.10;;;;;;5014340;28;20013;-79
2022/05/30 05:56:53;;;;;;;;;;;11.40;72.90;;;;;;4993936;28;19914;-79
2022/05/30 05:59:19;;;;;;;;;;;11.50;72.90;;;;;;5007559;28;19937;-78
2022/05/30 06:01:44;;;;;;;;;;;11.60;73.50;;;;;;5005940;28;20023;-79
2022/05/30 06:04:10;;;;;;;;;;;11.80;71.30;;;;;;5007098;28;19988;-79
2022/05/30 06:06:36;;;;;;;;;;;11.70;71.40;;;;;;4994060;28;19969;-79
2022/05/30 06:09:04;;;;;;;;;;;11.60;71.80;;;;;;5007247;28;19910;-80
2022/05/30 06:11:30;;;;;;;;;;;11.80;71.20;;;;;;5007564;28;19921;-78
2022/05/30 06:13:57;;;;;;;;;;;12.10;70.00;;;;;;5021718;28;19921;-78
2022/05/30 06:16:24;;;;;;;;;;;12.10;71.40;;;;;;5005699;28;19914;-79
2022/05/30 06:18:50;;;;;;;;;;;12.10;70.30;;;;;;5005768;28;19917;-79
2022/05/30 06:21:16;;;;;;;;;;;12.10;70.20;;;;;;4994987;28;19970;-78
2022/05/30 06:23:44;;;;;;;;;;;12.30;69.90;;;;;;5021616;28;19949;-78
2022/05/30 06:26:09;;;;;;;;;;;12.30;70.70;;;;;;5005716;28;19921;-78
2022/05/30 06:28:35;;;;;;;;;;;12.50;70.70;;;;;;5014194;28;19925;-78
2022/05/30 06:31:05;;;;;;;;;;;12.60;70.10;;;;;;4990531;28;19917;-78
2022/05/30 06:33:30;;;;;;;;;;;12.50;71.00;;;;;;4988134;28;19917;-78
2022/05/30 06:35:56;;;;;;;;;;;12.60;68.60;;;;;;4989057;28;19914;-78
2022/05/30 06:38:21;;;;;;;;;;;12.60;69.50;;;;;;4987783;28;20389;-79
2022/05/30 06:40:47;;;;;;;;;;;12.60;69.60;;;;;;4984501;28;19926;-78
2022/05/30 06:43:12;;;;;;;;;;;12.50;69.50;;;;;;4974736;28;20316;-78
2022/05/30 06:45:38;;;;;;;;;;;12.50;68.40;;;;;;4972418;28;19921;-78
2022/05/30 06:48:04;;;;;;;;;;;12.60;67.10;;;;;;4972562;28;19915;-78
2022/05/30 06:50:29;;;;;;;;;;;12.60;67.00;;;;;;4967916;28;20415;-78
2022/05/30 06:52:55;;;;;;;;;;;12.50;67.00;;;;;;4968168;28;20335;-78
2022/05/30 06:55:20;;;;;;;;;;;12.50;68.00;;;;;;4965408;28;19915;-78
2022/05/30 07:00:30;;;;;;;;;;;12.50;68.50;;;;;;4968153;28;20060;-78
2022/05/30 07:02:56;;;;;;;;;;;12.50;67.10;;;;;;4982320;28;20368;-78
2022/05/30 07:05:22;;;;;;;;;;;12.90;66.10;;;;;;4967634;28;19977;-79
2022/05/30 07:07:48;;;;;;;;;;;12.90;67.60;;;;;;4947633;28;19918;-79
2022/05/30 07:10:14;;;;;;;;;;;12.80;67.40;;;;;;4964856;28;20291;-78
2022/05/30 07:12:39;;;;;;;;;;;12.80;67.40;;;;;;4982988;28;20032;-78
2022/05/30 07:15:06;;;;;;;;;;;13.10;67.20;;;;;;4969439;28;20394;-77
2022/05/30 07:17:31;;;;;;;;;;;13.30;65.80;;;;;;4950461;28;20013;-78
2022/05/30 07:19:57;;;;;;;;;;;13.40;66.40;;;;;;4975411;28;20011;-77
2022/05/30 07:22:23;;;;;;;;;;;13.60;62.50;;;;;;4960979;28;20232;-78
2022/05/30 07:24:49;;;;;;;;;;;13.80;59.30;;;;;;4968850;28;19918;-77
2022/05/30 07:27:14;;;;;;;;;;;13.60;58.40;;;;;;4971841;28;19922;-76
2022/05/30 07:29:40;;;;;;;;;;;13.70;59.20;;;;;;4970340;28;19941;-77
2022/05/30 07:32:05;;;;;;;;;;;13.80;59.30;;;;;;4973507;28;20287;-78
2022/05/30 07:34:31;;;;;;;;;;;13.80;58.80;;;;;;4963735;28;19993;-78
2022/05/30 07:36:57;;;;;;;;;;;13.60;59.40;;;;;;4964677;28;19961;-78
2022/05/30 07:39:23;;;;;;;;;;;13.60;59.60;;;;;;4978516;28;19921;-79
2022/05/30 07:41:49;;;;;;;;;;;13.60;55.10;;;;;;5004999;28;20311;-77
2022/05/30 07:44:14;;;;;;;;;;;13.60;55.80;;;;;;4990563;28;19918;-78
2022/05/30 07:46:41;;;;;;;;;;;13.40;57.20;;;;;;5007292;28;19920;-78
2022/05/30 07:49:06;;;;;;;;;;;13.40;57.20;;;;;;5021866;28;19964;-79
2022/05/30 07:51:32;;;;;;;;;;;13.20;59.00;;;;;;4989873;28;19918;-78
2022/05/30 07:53:57;;;;;;;;;;;13.10;61.30;;;;;;5002403;28;20712;-79
2022/05/30 07:56:23;;;;;;;;;;;13.20;61.20;;;;;;5017340;28;19992;-78
2022/05/30 07:58:49;;;;;;;;;;;13.30;60.70;;;;;;5008329;28;19925;-78
2022/05/30 08:01:16;;;;;;;;;;;13.50;60.70;;;;;;5014732;28;19922;-78
2022/05/30 08:03:42;;;;;;;;;;;13.50;60.30;;;;;;4989298;28;19953;-78
2022/05/30 08:06:12;;;;;;;;;;;13.50;61.50;;;;;;4989652;28;19976;-79
2022/05/30 08:08:38;;;;;;;;;;;13.30;61.40;;;;;;5004105;28;19929;-77
2022/05/30 08:11:04;;;;;;;;;;;13.10;60.80;;;;;;4989735;28;19928;-78
2022/05/30 08:13:30;;;;;;;;;;;13.20;61.10;;;;;;5005136;28;20019;-79
2022/05/30 08:15:55;;;;;;;;;;;13.10;58.70;;;;;;5006762;28;19918;-77
2022/05/30 08:18:21;;;;;;;;;;;13.30;57.80;;;;;;5006800;28;19933;-78
2022/05/30 08:20:46;;;;;;;;;;;13.60;57.10;;;;;;4990809;28;19944;-77
2022/05/30 08:23:12;;;;;;;;;;;13.90;56.50;;;;;;4986496;28;19937;-78
2022/05/30 08:25:39;;;;;;;;;;;13.80;55.00;;;;;;5005140;28;19925;-78
2022/05/30 08:28:04;;;;;;;;;;;14.00;56.10;;;;;;5006428;28;19968;-78
2022/05/30 08:30:30;;;;;;;;;;;14.10;55.90;;;;;;4989334;28;19913;-77
2022/05/30 08:32:55;;;;;;;;;;;14.20;56.50;;;;;;5003608;28;21605;-77
2022/05/30 08:35:22;;;;;;;;;;;14.40;53.60;;;;;;4989556;28;19922;-79
2022/05/30 08:37:48;;;;;;;;;;;14.40;54.90;;;;;;5007155;28;19914;-78
2022/05/30 08:43:19;;;;;;;;;;;14.50;54.30;;;;;;4987619;28;19964;-76
2022/05/30 08:45:45;;;;;;;;;;;14.60;55.30;;;;;;5009813;28;20366;-76
2022/05/30 08:48:12;;;;;;;;;;;14.50;53.90;;;;;;5011033;28;19968;-77
2022/05/30 08:50:42;;;;;;;;;;;14.50;54.30;;;;;;5005356;28;19984;-77
2022/05/30 08:53:26;;;;;;;;;;;14.50;55.30;;;;;;4990182;28;19922;-77
2022/05/30 08:56:00;;;;;;;;;;;14.40;54.60;;;;;;4989607;28;19917;-77
2022/05/30 08:58:29;;;;;;;;;;;14.50;53.40;;;;;;5007792;28;19953;-77
2022/05/30 09:01:01;;;;;;;;;;;14.50;56.50;;;;;;4993971;28;21313;-77
2022/05/30 09:03:31;;;;;;;;;;;14.20;56.60;;;;;;4988190;28;19938;-77
2022/05/30 09:06:20;;;;;;;;;;;14.10;57.30;;;;;;4992576;28;19921;-78
2022/05/30 09:08:48;;;;;;;;;;;14.10;58.30;;;;;;5006348;28;19945;-77
2022/05/30 09:11:20;;;;;;;;;;;14.20;56.80;;;;;;4980786;28;19924;-77
2022/05/30 09:13:48;;;;;;;;;;;14.10;56.90;;;;;;4985643;28;19928;-77
2022/05/30 09:16:17;;;;;;;;;;;14.10;57.70;;;;;;4981586;28;20317;-76
2022/05/30 09:18:45;;;;;;;;;;;14.30;56.40;;;;;;4979137;28;20024;-77
2022/05/30 09:21:10;;;;;;;;;;;14.50;55.30;;;;;;5003283;28;19914;-76
2022/05/30 09:23:36;;;;;;;;;;;14.50;54.60;;;;;;4988546;28;20017;-77
2022/05/30 09:26:03;;;;;;;;;;;14.60;55.80;;;;;;5022143;28;19918;-77
2022/05/30 09:28:33;;;;;;;;;;;14.70;55.10;;;;;;4991680;28;19910;-77
2022/05/30 09:31:17;;;;;;;;;;;14.80;53.50;;;;;;4988363;28;19918;-77
2022/05/30 09:33:47;;;;;;;;;;;14.80;53.30;;;;;;4983735;28;19914;-76
2022/05/30 09:36:15;;;;;;;;;;;14.80;52.90;;;;;;5003192;28;20045;-76
2022/05/30 09:38:45;;;;;;;;;;;14.90;51.80;;;;;;4977212;28;19914;-76
2022/05/30 09:41:14;;;;;;;;;;;14.90;49.90;;;;;;5016148;28;20021;-76
2022/05/30 09:43:43;;;;;;;;;;;15.00;49.90;;;;;;4982921;28;20607;-76
2022/05/30 09:46:30;;;;;;;;;;;15.30;48.10;;;;;;4988805;28;19996;-76
2022/05/30 09:49:00;;;;;;;;;;;15.60;46.00;;;;;;4980235;28;19917;-75
2022/05/30 09:51:30;;;;;;;;;;;15.40;50.70;;;;;;5016256;28;19998;-75
2022/05/30 09:53:55;;;;;;;;;;;15.90;49.00;;;;;;5017017;28;19918;-76
2022/05/30 09:56:21;;;;;;;;;;;15.80;50.00;;;;;;5001433;28;19980;-76
2022/05/30 09:58:48;;;;;;;;;;;16.00;49.20;;;;;;4990495;28;20268;-75
2022/05/30 10:01:27;;;;;;;;;;;15.90;50.40;;;;;;4995183;28;19914;-76
2022/05/30 10:03:56;;;;;;;;;;;16.10;47.60;;;;;;4984433;28;19944;-76
2022/05/30 10:06:24;;;;;;;;;;;16.10;48.20;;;;;;4986221;28;19924;-76
2022/05/30 10:08:51;;;;;;;;;;;16.00;48.50;;;;;;4989169;28;19909;-76
2022/05/30 10:11:32;;;;;;;;;;;16.00;49.40;;;;;;4988688;28;19936;-76
2022/05/30 10:13:58;;;;;;;;;;;15.90;50.20;;;;;;5000322;28;19922;-76
2022/05/30 10:16:34;;;;;;;;;;;15.90;49.90;;;;;;4984086;28;19921;-76
2022/05/30 10:19:04;;;;;;;;;;;15.60;51.00;;;;;;4987710;28;19988;-75
2022/05/30 10:21:29;;;;;;;;;;;15.70;49.70;;;;;;5002909;28;19936;-75
2022/05/30 10:30:01;;;;;;;;;;;16.00;46.90;;;;;;4995333;28;19946;-81
2022/05/30 10:32:30;;;;;;;;;;;16.00;45.70;;;;;;4976354;28;19914;-76
2022/05/30 10:35:03;;;;;;;;;;;15.70;45.40;;;;;;5017796;28;20361;-76
2022/05/30 10:37:29;;;;;;;;;;;15.90;45.30;;;;;;4989019;28;19934;-77
2022/05/30 10:40:00;;;;;;;;;;;15.90;46.60;;;;;;4988618;28;19925;-79
2022/05/30 10:42:37;;;;;;;;;;;16.00;45.50;;;;;;4989780;28;20283;-76
2022/05/30 10:45:24;;;;;;;;;;;16.10;46.90;;;;;;4987584;28;20075;-76
2022/05/30 10:47:52;;;;;;;;;;;16.10;47.10;;;;;;4986211;28;20405;-77
2022/05/30 10:50:23;;;;;;;;;;;16.10;46.40;;;;;;4988858;28;20435;-75
2022/05/30 10:53:04;;;;;;;;;;;16.10;44.50;;;;;;5011395;28;20034;-76
2022/05/30 10:55:31;;;;;;;;;;;16.00;45.60;;;;;;5017931;28;19921;-77
2022/05/30 10:57:57;;;;;;;;;;;16.00;46.00;;;;;;4991883;28;20266;-77
2022/05/30 11:00:25;;;;;;;;;;;15.90;46.70;;;;;;4992407;28;19960;-78
2022/05/30 11:03:12;;;;;;;;;;;15.80;47.20;;;;;;4991506;28;19928;-76
2022/05/30 11:05:51;;;;;;;;;;;15.90;47.50;;;;;;5019960;28;20487;-76
2022/05/30 11:08:35;;;;;;;;;;;15.50;48.70;;;;;;4983965;28;20017;-77
2022/05/30 11:11:04;;;;;;;;;;;15.50;48.30;;;;;;4984470;28;21260;-76
2022/05/30 11:13:35;;;;;;;;;;;15.40;49.40;;;;;;4982435;28;19942;-76
2022/05/30 11:16:19;;;;;;;;;;;15.20;48.70;;;;;;4985636;28;19948;-76
2022/05/30 11:18:48;;;;;;;;;;;15.00;49.80;;;;;;4980755;28;19924;-74
2022/05/30 11:21:26;;;;;;;;;;;14.80;50.70;;;;;;5011517;28;19913;-75
2022/05/30 11:23:52;;;;;;;;;;;14.60;52.30;;;;;;4977355;28;20321;-75
2022/05/30 11:26:33;;;;;;;;;;;14.90;50.40;;;;;;4998002;28;20030;-77
2022/05/30 11:29:17;;;;;;;;;;;14.90;52.50;;;;;;4987939;28;19914;-77
2022/05/30 11:31:42;;;;;;;;;;;15.20;49.60;;;;;;4987459;28;19981;-77
2022/05/30 11:34:08;;;;;;;;;;;15.30;51.40;;;;;;5021439;28;19929;-77
2022/05/30 11:36:37;;;;;;;;;;;15.50;49.30;;;;;;4985355;28;21047;-74
2022/05/30 11:39:23;;;;;;;;;;;15.60;49.00;;;;;;4988044;28;20332;-75
2022/05/30 11:41:52;;;;;;;;;;;15.60;49.30;;;;;;4988184;28;19940;-74
2022/05/30 11:44:17;;;;;;;;;;;15.70;48.20;;;;;;4978914;28;20267;-74
2022/05/30 11:46:43;;;;;;;;;;;15.70;49.30;;;;;;4988001;28;19924;-74
2022/05/30 11:49:14;;;;;;;;;;;15.50;49.80;;;;;;4983779;28;19920;-73
2022/05/30 11:51:49;;;;;;;;;;;15.60;51.10;;;;;;4984614;28;19929;-73
2022/05/30 11:54:32;;;;;;;;;;;15.80;46.60;;;;;;4980034;28;20349;-71
2022/05/30 11:57:17;;;;;;;;;;;15.70;47.30;;;;;;4978209;28;20438;-74
2022/05/30 11:59:48;;;;;;;;;;;15.70;48.10;;;;;;5022968;28;19939;-73
2022/05/30 12:02:26;;;;;;;;;;;15.90;47.20;;;;;;4990918;28;19933;-75
2022/05/30 12:04:54;;;;;;;;;;;16.00;45.20;;;;;;5020758;28;19920;-74
2022/05/30 12:07:29;;;;;;;;;;;15.70;47.20;;;;;;4987349;28;20012;-76
2022/05/30 12:10:21;;;;;;;;;;;15.80;48.00;;;;;;4983932;28;19910;-76
2022/05/30 12:13:05;;;;;;;;;;;16.10;45.90;;;;;;4984056;28;19918;-74
2022/05/30 12:15:41;;;;;;;;;;;16.30;46.40;;;;;;5002079;28;19917;-73
2022/05/30 12:23:59;;;;;;;;;;;16.40;49.00;;;;;;4987049;28;19968;-74
2022/05/30 12:26:44;;;;;;;;;;;16.70;46.80;;;;;;4985490;28;20024;-73
2022/05/30 12:29:29;;;;;;;;;;;16.80;44.90;;;;;;4985855;28;20017;-73
2022/05/30 12:32:10;;;;;;;;;;;16.60;46.00;;;;;;5002423;28;20005;-74
2022/05/30 12:34:55;;;;;;;;;;;16.80;46.40;;;;;;4986292;28;19999;-74
2022/05/30 12:37:41;;;;;;;;;;;16.60;46.10;;;;;;4988106;28;19960;-74
2022/05/30 12:40:13;;;;;;;;;;;16.30;46.50;;;;;;4985437;28;20294;-73
2022/05/30 12:42:42;;;;;;;;;;;16.40;46.90;;;;;;4987776;28;20393;-74
2022/05/30 12:45:23;;;;;;;;;;;16.60;45.10;;;;;;5003448;28;20055;-73
2022/05/30 12:47:53;;;;;;;;;;;16.60;45.40;;;;;;4987112;28;19910;-74
2022/05/30 12:50:31;;;;;;;;;;;16.70;46.20;;;;;;4987559;28;19933;-74
2022/05/30 12:53:01;;;;;;;;;;;16.90;44.90;;;;;;4995902;28;20371;-73
2022/05/30 12:55:39;;;;;;;;;;;17.10;43.70;;;;;;5011344;28;19913;-73
2022/05/30 12:58:05;;;;;;;;;;;16.80;43.40;;;;;;5010361;28;19979;-74
2022/05/30 13:00:37;;;;;;;;;;;16.60;45.10;;;;;;4993936;28;19909;-74
2022/05/30 13:03:09;;;;;;;;;;;16.90;45.70;;;;;;5001480;28;19989;-74
2022/05/30 13:05:36;;;;;;;;;;;17.10;44.90;;;;;;4999737;28;20287;-74
2022/05/30 13:08:02;;;;;;;;;;;17.10;46.00;;;;;;4995958;28;19922;-73
2022/05/30 13:10:36;;;;;;;;;;;16.90;44.90;;;;;;5011160;28;20017;-73
2022/05/30 13:13:13;;;;;;;;;;;16.90;46.10;;;;;;4995376;28;19917;-73
2022/05/30 13:15:45;;;;;;;;;;;17.10;43.60;;;;;;4993762;28;19964;-72
2022/05/30 13:18:15;;;;;;;;;;;16.80;44.40;;;;;;5023721;28;19980;-74
2022/05/30 13:20:47;;;;;;;;;;;16.60;45.80;;;;;;4993234;28;19917;-74
2022/05/30 13:23:15;;;;;;;;;;;16.90;46.20;;;;;;4993949;28;19921;-73
2022/05/30 13:25:51;;;;;;;;;;;16.90;43.50;;;;;;5025434;28;19914;-76
2022/05/30 13:28:29;;;;;;;;;;;16.90;43.00;;;;;;4975896;28;20001;-75
2022/05/30 13:30:55;;;;;;;;;;;16.60;42.30;;;;;;4983798;28;19917;-75
2022/05/30 13:33:20;;;;;;;;;;;16.30;44.50;;;;;;4993609;28;19914;-75
2022/05/30 13:35:49;;;;;;;;;;;16.40;45.30;;;;;;5026213;28;19959;-74
2022/05/30 13:38:15;;;;;;;;;;;16.60;46.50;;;;;;4996441;28;20009;-75
2022/05/30 13:40:41;;;;;;;;;;;16.60;46.80;;;;;;5025040;28;20071;-75
2022/05/30 13:43:08;;;;;;;;;;;16.60;45.10;;;;;;4994607;28;19917;-75
2022/05/30 13:45:36;;;;;;;;;;;16.50;45.50;;;;;;4992588;28;19918;-75
2022/05/30 13:48:05;;;;;;;;;;;16.20;47.20;;;;;;4991612;28;19924;-73
2022/05/30 13:50:45;;;;;;;;;;;16.20;45.30;;;;;;5009403;28;19917;-74
2022/05/30 13:53:11;;;;;;;;;;;16.00;45.00;;;;;;4993571;28;20342;-75
2022/05/30 13:55:38;;;;;;;;;;;16.00;45.40;;;;;;5008002;28;20466;-74
2022/05/30 13:58:04;;;;;;;;;;;16.00;45.20;;;;;;4992056;28;20000;-74
2022/05/30 14:00:31;;;;;;;;;;;15.70;47.00;;;;;;4995077;28;19960;-74
2022/05/30 14:02:57;;;;;;;;;;;16.00;46.50;;;;;;4992755;28;19913;-75
2022/05/30 14:05:30;;;;;;;;;;;16.00;47.20;;;;;;5001043;28;19918;-76
2022/05/30 14:07:56;;;;;;;;;;;16.00;47.50;;;;;;4988229;28;19922;-75
2022/05/30 14:10:23;;;;;;;;;;;15.90;46.90;;;;;;4988402;28;20004;-75
2022/05/30 14:12:49;;;;;;;;;;;15.80;47.80;;;;;;5026527;28;19914;-75
2022/05/30 14:15:21;;;;;;;;;;;15.90;46.60;;;;;;5012306;28;20329;-74
2022/05/30 14:17:48;;;;;;;;;;;16.00;46.00;;;;;;5010238;28;20484;-75
2022/05/30 14:20:28;;;;;;;;;;;16.10;45.10;;;;;;5009412;28;19917;-75
2022/05/30 14:22:57;;;;;;;;;;;16.10;45.40;;;;;;5001327;28;20053;-75
2022/05/30 14:25:34;;;;;;;;;;;16.00;47.30;;;;;;5014277;28;19913;-75
2022/05/30 14:28:02;;;;;;;;;;;15.90;46.50;;;;;;5013618;28;19960;-76
2022/05/30 14:30:30;;;;;;;;;;;15.80;46.60;;;;;;4990699;28;19940;-75
2022/05/30 14:33:09;;;;;;;;;;;16.10;45.70;;;;;;5010386;28;19921;-75
2022/05/30 14:35:35;;;;;;;;;;;16.10;46.10;;;;;;5009669;28;19917;-76
2022/05/30 14:38:02;;;;;;;;;;;16.10;46.40;;;;;;4999638;28;19936;-75
2022/05/30 14:40:33;;;;;;;;;;;16.50;46.00;;;;;;5012204;28;19925;-76
2022/05/30 14:42:59;;;;;;;;;;;16.60;44.60;;;;;;4999034;28;19957;-77
2022/05/30 14:45:25;;;;;;;;;;;16.60;45.50;;;;;;4981826;28;19922;-75
2022/05/30 14:47:53;;;;;;;;;;;16.60;45.90;;;;;;4993132;28;19920;-75
2022/05/30 14:50:38;;;;;;;;;;;16.50;46.10;;;;;;5004779;28;19989;-73